Terminal Aerodrome Forecast
Issued by NWS Cleveland, OH

Home | Current Version | Previous Version | Graphics & Text | Print | Product List | Glossary On
Versions: 1 2 3 4 5 6 7 8 9 10 11 12 13 14 15 16 17 18 19 20 21 22 23 24 25 26 27 28 29
206
FTUS41 KCLE 260257 AAC
TAFCLE
TAF AMD
KCLE 260257Z 2603/2706 05011KT P6SM SCT060 BKN100
     FM260500 08008KT P6SM OVC025
      TEMPO 2606/2610 OVC015
     FM261700 17010KT P6SM VCSH SCT008 OVC020
     FM262100 17012KT 4SM -SHRA OVC010 PROB30 2621/2703 2SM -TSRA
      OVC010CB=

USA.gov is the U.S. government's official web portal to all federal, state and local government web resources and services.